sensor_id;sensor_type;location;lat;lon;timestamp;temperature;humidity
42135;DHT22;28312;43.460;11.810;2022-08-21T00:00:48;20.70;65.50
42135;DHT22;28312;43.460;11.810;2022-08-21T00:04:53;20.70;65.60
42135;DHT22;28312;43.460;11.810;2022-08-21T00:09:01;20.60;65.80
42135;DHT22;28312;43.460;11.810;2022-08-21T00:13:09;20.60;65.90
42135;DHT22;28312;43.460;11.810;2022-08-21T00:17:12;20.60;65.90
42135;DHT22;28312;43.460;11.810;2022-08-21T00:21:16;20.50;65.90
42135;DHT22;28312;43.460;11.810;2022-08-21T00:25:20;20.50;65.80
42135;DHT22;28312;43.460;11.810;2022-08-21T00:29:28;20.50;65.90
42135;DHT22;28312;43.460;11.810;2022-08-21T00:33:32;20.30;66.10
42135;DHT22;28312;43.460;11.810;2022-08-21T00:37:35;20.30;66.20
42135;DHT22;28312;43.460;11.810;2022-08-21T00:41:41;20.30;66.20
42135;DHT22;28312;43.460;11.810;2022-08-21T00:45:44;20.20;66.30
42135;DHT22;28312;43.460;11.810;2022-08-21T00:49:48;20.20;66.40
42135;DHT22;28312;43.460;11.810;2022-08-21T00:53:55;20.10;66.50
42135;DHT22;28312;43.460;11.810;2022-08-21T00:58:01;20.10;66.50
42135;DHT22;28312;43.460;11.810;2022-08-21T01:02:07;20.10;66.60
42135;DHT22;28312;43.460;11.810;2022-08-21T01:06:11;19.90;66.80
42135;DHT22;28312;43.460;11.810;2022-08-21T01:10:16;19.90;66.80
42135;DHT22;28312;43.460;11.810;2022-08-21T01:14:27;19.90;66.90
42135;DHT22;28312;43.460;11.810;2022-08-21T01:18:31;19.80;67.00
42135;DHT22;28312;43.460;11.810;2022-08-21T01:22:35;19.70;67.10
42135;DHT22;28312;43.460;11.810;2022-08-21T01:26:42;19.60;67.30
42135;DHT22;28312;43.460;11.810;2022-08-21T01:30:45;19.60;67.30
42135;DHT22;28312;43.460;11.810;2022-08-21T01:34:51;19.60;67.50
42135;DHT22;28312;43.460;11.810;2022-08-21T01:38:56;19.50;67.40
42135;DHT22;28312;43.460;11.810;2022-08-21T01:43:00;19.60;67.40
42135;DHT22;28312;43.460;11.810;2022-08-21T01:47:06;19.50;67.40
42135;DHT22;28312;43.460;11.810;2022-08-21T01:51:10;19.40;67.80
42135;DHT22;28312;43.460;11.810;2022-08-21T01:55:16;19.50;67.90
42135;DHT22;28312;43.460;11.810;2022-08-21T01:59:22;19.40;67.90
42135;DHT22;28312;43.460;11.810;2022-08-21T02:03:26;19.40;67.90
42135;DHT22;28312;43.460;11.810;2022-08-21T02:07:39;19.40;68.00
42135;DHT22;28312;43.460;11.810;2022-08-21T02:11:43;19.40;67.90
42135;DHT22;28312;43.460;11.810;2022-08-21T02:15:47;19.40;68.00
42135;DHT22;28312;43.460;11.810;2022-08-21T02:19:51;19.30;68.00
42135;DHT22;28312;43.460;11.810;2022-08-21T02:23:55;19.20;68.20
42135;DHT22;28312;43.460;11.810;2022-08-21T02:28:01;19.20;68.30
42135;DHT22;28312;43.460;11.810;2022-08-21T02:32:05;19.10;68.30
42135;DHT22;28312;43.460;11.810;2022-08-21T02:36:10;19.10;68.30
42135;DHT22;28312;43.460;11.810;2022-08-21T02:40:15;19.10;68.30
42135;DHT22;28312;43.460;11.810;2022-08-21T02:44:19;19.10;68.30
42135;DHT22;28312;43.460;11.810;2022-08-21T02:48:33;19.00;68.40
42135;DHT22;28312;43.460;11.810;2022-08-21T02:52:37;19.00;68.50
42135;DHT22;28312;43.460;11.810;2022-08-21T02:56:40;19.00;68.50
42135;DHT22;28312;43.460;11.810;2022-08-21T03:00:44;19.00;68.60
42135;DHT22;28312;43.460;11.810;2022-08-21T03:04:48;18.90;68.70
42135;DHT22;28312;43.460;11.810;2022-08-21T03:08:52;18.90;68.80
42135;DHT22;28312;43.460;11.810;2022-08-21T03:12:55;18.80;68.90
42135;DHT22;28312;43.460;11.810;2022-08-21T03:16:59;18.80;69.00
42135;DHT22;28312;43.460;11.810;2022-08-21T03:21:03;18.70;69.20
42135;DHT22;28312;43.460;11.810;2022-08-21T03:25:08;18.70;69.40
42135;DHT22;28312;43.460;11.810;2022-08-21T03:29:14;18.70;69.40
42135;DHT22;28312;43.460;11.810;2022-08-21T03:33:18;18.70;69.30
42135;DHT22;28312;43.460;11.810;2022-08-21T03:37:25;18.70;69.50
42135;DHT22;28312;43.460;11.810;2022-08-21T03:41:29;18.70;69.50
42135;DHT22;28312;43.460;11.810;2022-08-21T03:45:32;18.60;69.70
42135;DHT22;28312;43.460;11.810;2022-08-21T03:49:36;18.60;69.60
42135;DHT22;28312;43.460;11.810;2022-08-21T03:53:40;18.60;69.60
42135;DHT22;28312;43.460;11.810;2022-08-21T03:57:43;18.60;69.70
42135;DHT22;28312;43.460;11.810;2022-08-21T04:01:55;18.60;69.90
42135;DHT22;28312;43.460;11.810;2022-08-21T04:05:59;18.60;70.10
42135;DHT22;28312;43.460;11.810;2022-08-21T04:10:05;18.60;70.00
42135;DHT22;28312;43.460;11.810;2022-08-21T04:14:09;18.60;70.10
42135;DHT22;28312;43.460;11.810;2022-08-21T04:18:14;18.60;70.00
42135;DHT22;28312;43.460;11.810;2022-08-21T04:22:17;18.50;70.10
42135;DHT22;28312;43.460;11.810;2022-08-21T04:26:21;18.50;70.10
42135;DHT22;28312;43.460;11.810;2022-08-21T04:30:25;18.40;70.10
42135;DHT22;28312;43.460;11.810;2022-08-21T04:34:31;18.40;70.20
42135;DHT22;28312;43.460;11.810;2022-08-21T04:38:34;18.40;70.20
42135;DHT22;28312;43.460;11.810;2022-08-21T04:42:44;18.40;70.30
42135;DHT22;28312;43.460;11.810;2022-08-21T04:46:47;18.40;70.40
42135;DHT22;28312;43.460;11.810;2022-08-21T04:51:06;18.40;70.50
42135;DHT22;28312;43.460;11.810;2022-08-21T04:55:11;18.40;70.80
42135;DHT22;28312;43.460;11.810;2022-08-21T04:59:24;18.60;70.70
42135;DHT22;28312;43.460;11.810;2022-08-21T05:03:33;18.60;70.70
42135;DHT22;28312;43.460;11.810;2022-08-21T05:07:37;18.70;70.60
42135;DHT22;28312;43.460;11.810;2022-08-21T05:11:45;18.70;70.60
42135;DHT22;28312;43.460;11.810;2022-08-21T05:15:49;18.70;70.80
42135;DHT22;28312;43.460;11.810;2022-08-21T05:19:52;18.70;70.80
42135;DHT22;28312;43.460;11.810;2022-08-21T05:23:56;18.80;70.90
42135;DHT22;28312;43.460;11.810;2022-08-21T05:27:59;18.80;70.90
42135;DHT22;28312;43.460;11.810;2022-08-21T05:32:10;18.90;71.00
42135;DHT22;28312;43.460;11.810;2022-08-21T05:36:14;19.00;71.10
42135;DHT22;28312;43.460;11.810;2022-08-21T05:40:18;19.10;71.10
42135;DHT22;28312;43.460;11.810;2022-08-21T05:44:25;19.20;71.10
42135;DHT22;28312;43.460;11.810;2022-08-21T05:48:28;19.40;71.10
42135;DHT22;28312;43.460;11.810;2022-08-21T05:52:32;19.50;71.10
42135;DHT22;28312;43.460;11.810;2022-08-21T05:56:35;19.70;71.40
42135;DHT22;28312;43.460;11.810;2022-08-21T06:00:40;19.90;71.60
42135;DHT22;28312;43.460;11.810;2022-08-21T06:04:45;20.20;71.70
42135;DHT22;28312;43.460;11.810;2022-08-21T06:08:48;20.50;71.70
42135;DHT22;28312;43.460;11.810;2022-08-21T06:12:55;20.80;71.60
42135;DHT22;28312;43.460;11.810;2022-08-21T06:17:11;21.10;71.40
42135;DHT22;28312;43.460;11.810;2022-08-21T06:21:15;21.50;71.20
42135;DHT22;28312;43.460;11.810;2022-08-21T06:25:19;21.80;70.90
42135;DHT22;28312;43.460;11.810;2022-08-21T06:29:23;22.30;70.50
42135;DHT22;28312;43.460;11.810;2022-08-21T06:33:27;22.60;70.00
42135;DHT22;28312;43.460;11.810;2022-08-21T06:37:34;22.90;69.60
42135;DHT22;28312;43.460;11.810;2022-08-21T06:41:38;23.10;69.50
42135;DHT22;28312;43.460;11.810;2022-08-21T06:45:42;23.30;69.40
42135;DHT22;28312;43.460;11.810;2022-08-21T06:49:46;23.50;69.30
42135;DHT22;28312;43.460;11.810;2022-08-21T06:53:52;23.70;68.90
42135;DHT22;28312;43.460;11.810;2022-08-21T06:57:56;24.00;68.60
42135;DHT22;28312;43.460;11.810;2022-08-21T07:02:00;24.10;68.60
42135;DHT22;28312;43.460;11.810;2022-08-21T07:06:05;24.10;68.40
42135;DHT22;28312;43.460;11.810;2022-08-21T07:10:10;24.10;68.40
42135;DHT22;28312;43.460;11.810;2022-08-21T07:14:24;24.20;68.50
42135;DHT22;28312;43.460;11.810;2022-08-21T07:18:28;24.50;68.50
42135;DHT22;28312;43.460;11.810;2022-08-21T07:22:31;24.60;68.40
42135;DHT22;28312;43.460;11.810;2022-08-21T07:26:36;24.80;68.20
42135;DHT22;28312;43.460;11.810;2022-08-21T07:30:39;24.90;68.00
42135;DHT22;28312;43.460;11.810;2022-08-21T07:34:45;25.00;68.00
42135;DHT22;28312;43.460;11.810;2022-08-21T07:38:48;25.10;68.00
42135;DHT22;28312;43.460;11.810;2022-08-21T07:42:54;25.30;68.10
42135;DHT22;28312;43.460;11.810;2022-08-21T07:46:58;25.40;68.00
42135;DHT22;28312;43.460;11.810;2022-08-21T07:51:06;25.60;68.00
42135;DHT22;28312;43.460;11.810;2022-08-21T07:55:12;25.80;68.00
42135;DHT22;28312;43.460;11.810;2022-08-21T07:59:17;26.00;68.00
42135;DHT22;28312;43.460;11.810;2022-08-21T08:03:20;26.30;67.80
42135;DHT22;28312;43.460;11.810;2022-08-21T08:07:30;26.50;67.60
42135;DHT22;28312;43.460;11.810;2022-08-21T08:11:35;26.80;67.50
42135;DHT22;28312;43.460;11.810;2022-08-21T08:15:41;27.10;67.40
42135;DHT22;28312;43.460;11.810;2022-08-21T08:19:46;27.30;67.20
42135;DHT22;28312;43.460;11.810;2022-08-21T08:23:49;27.50;66.90
42135;DHT22;28312;43.460;11.810;2022-08-21T08:27:53;27.60;66.80
42135;DHT22;28312;43.460;11.810;2022-08-21T08:31:56;27.70;66.80
42135;DHT22;28312;43.460;11.810;2022-08-21T08:36:01;27.80;66.50
42135;DHT22;28312;43.460;11.810;2022-08-21T08:40:19;27.80;66.60
42135;DHT22;28312;43.460;11.810;2022-08-21T08:44:25;28.00;66.50
42135;DHT22;28312;43.460;11.810;2022-08-21T08:56:51;28.40;66.10
42135;DHT22;28312;43.460;11.810;2022-08-21T09:00:58;28.50;66.10
42135;DHT22;28312;43.460;11.810;2022-08-21T09:05:03;28.60;65.90
42135;DHT22;28312;43.460;11.810;2022-08-21T09:13:49;29.00;65.70
42135;DHT22;28312;43.460;11.810;2022-08-21T09:27:09;29.50;65.00
42135;DHT22;28312;43.460;11.810;2022-08-21T09:31:34;29.60;65.00
42135;DHT22;28312;43.460;11.810;2022-08-21T09:35:54;29.70;64.70
42135;DHT22;28312;43.460;11.810;2022-08-21T09:39:58;29.90;65.00
42135;DHT22;28312;43.460;11.810;2022-08-21T09:44:04;30.10;65.00
42135;DHT22;28312;43.460;11.810;2022-08-21T09:48:24;30.40;65.30
42135;DHT22;28312;43.460;11.810;2022-08-21T09:52:34;30.60;65.20
42135;DHT22;28312;43.460;11.810;2022-08-21T09:56:58;30.90;65.10
42135;DHT22;28312;43.460;11.810;2022-08-21T10:01:24;31.20;64.80
42135;DHT22;28312;43.460;11.810;2022-08-21T10:05:28;31.50;64.20
42135;DHT22;28312;43.460;11.810;2022-08-21T10:09:35;31.60;64.20
42135;DHT22;28312;43.460;11.810;2022-08-21T10:13:47;31.80;64.30
42135;DHT22;28312;43.460;11.810;2022-08-21T10:36:42;32.30;62.50
42135;DHT22;28312;43.460;11.810;2022-08-21T10:50:33;32.80;62.60
42135;DHT22;28312;43.460;11.810;2022-08-21T10:55:02;33.30;62.00
42135;DHT22;28312;43.460;11.810;2022-08-21T10:59:47;33.60;61.30
42135;DHT22;28312;43.460;11.810;2022-08-21T11:04:02;33.70;60.70
42135;DHT22;28312;43.460;11.810;2022-08-21T11:08:13;34.00;60.30
42135;DHT22;28312;43.460;11.810;2022-08-21T11:12:38;34.20;59.80
42135;DHT22;28312;43.460;11.810;2022-08-21T11:16:52;34.40;58.40
42135;DHT22;28312;43.460;11.810;2022-08-21T11:25:32;34.50;58.40
42135;DHT22;28312;43.460;11.810;2022-08-21T11:29:40;34.60;58.30
42135;DHT22;28312;43.460;11.810;2022-08-21T11:33:47;34.60;57.60
42135;DHT22;28312;43.460;11.810;2022-08-21T11:42:28;34.30;57.20
42135;DHT22;28312;43.460;11.810;2022-08-21T11:50:59;34.40;56.60
42135;DHT22;28312;43.460;11.810;2022-08-21T11:55:15;34.30;55.80
42135;DHT22;28312;43.460;11.810;2022-08-21T11:59:38;34.30;55.40
42135;DHT22;28312;43.460;11.810;2022-08-21T12:03:58;34.40;55.20
42135;DHT22;28312;43.460;11.810;2022-08-21T12:08:11;34.20;54.60
42135;DHT22;28312;43.460;11.810;2022-08-21T12:12:34;33.90;54.00
42135;DHT22;28312;43.460;11.810;2022-08-21T12:16:41;33.60;54.20
42135;DHT22;28312;43.460;11.810;2022-08-21T12:25:11;33.20;54.80
42135;DHT22;28312;43.460;11.810;2022-08-21T12:29:32;33.10;54.60
42135;DHT22;28312;43.460;11.810;2022-08-21T12:33:38;33.10;54.50
42135;DHT22;28312;43.460;11.810;2022-08-21T12:37:50;33.00;54.50
42135;DHT22;28312;43.460;11.810;2022-08-21T12:46:04;33.10;54.60
42135;DHT22;28312;43.460;11.810;2022-08-21T12:50:15;33.10;54.50
42135;DHT22;28312;43.460;11.810;2022-08-21T12:54:27;33.00;54.40
42135;DHT22;28312;43.460;11.810;2022-08-21T12:58:32;32.90;54.30
42135;DHT22;28312;43.460;11.810;2022-08-21T13:02:38;32.70;54.30
42135;DHT22;28312;43.460;11.810;2022-08-21T13:06:48;32.70;54.40
42135;DHT22;28312;43.460;11.810;2022-08-21T13:11:00;32.60;54.40
42135;DHT22;28312;43.460;11.810;2022-08-21T13:15:28;32.60;54.50
42135;DHT22;28312;43.460;11.810;2022-08-21T13:19:35;32.70;54.30
42135;DHT22;28312;43.460;11.810;2022-08-21T13:23:40;32.60;54.30
42135;DHT22;28312;43.460;11.810;2022-08-21T13:28:06;32.50;54.20
42135;DHT22;28312;43.460;11.810;2022-08-21T13:32:21;32.20;54.20
42135;DHT22;28312;43.460;11.810;2022-08-21T13:36:43;31.70;53.70
42135;DHT22;28312;43.460;11.810;2022-08-21T13:40:51;31.10;54.10
42135;DHT22;28312;43.460;11.810;2022-08-21T13:44:56;30.30;53.10
42135;DHT22;28312;43.460;11.810;2022-08-21T13:49:02;29.60;54.20
42135;DHT22;28312;43.460;11.810;2022-08-21T13:53:06;29.20;54.60
42135;DHT22;28312;43.460;11.810;2022-08-21T13:57:18;28.90;54.90
42135;DHT22;28312;43.460;11.810;2022-08-21T14:01:54;28.60;55.20
42135;DHT22;28312;43.460;11.810;2022-08-21T14:06:03;28.40;55.50
42135;DHT22;28312;43.460;11.810;2022-08-21T14:10:21;28.10;55.50
42135;DHT22;28312;43.460;11.810;2022-08-21T14:14:33;27.90;55.90
42135;DHT22;28312;43.460;11.810;2022-08-21T14:18:46;27.70;56.10
42135;DHT22;28312;43.460;11.810;2022-08-21T14:22:50;27.60;56.40
42135;DHT22;28312;43.460;11.810;2022-08-21T14:31:18;27.60;56.50
42135;DHT22;28312;43.460;11.810;2022-08-21T14:35:24;27.60;56.60
42135;DHT22;28312;43.460;11.810;2022-08-21T14:39:27;27.60;56.70
42135;DHT22;28312;43.460;11.810;2022-08-21T14:43:31;27.60;56.80
42135;DHT22;28312;43.460;11.810;2022-08-21T14:47:35;27.50;56.80
42135;DHT22;28312;43.460;11.810;2022-08-21T14:51:41;27.30;57.00
42135;DHT22;28312;43.460;11.810;2022-08-21T14:55:56;27.10;57.00
42135;DHT22;28312;43.460;11.810;2022-08-21T15:00:17;27.00;56.90
42135;DHT22;28312;43.460;11.810;2022-08-21T15:04:20;26.90;57.10
42135;DHT22;28312;43.460;11.810;2022-08-21T15:08:24;26.80;57.30
42135;DHT22;28312;43.460;11.810;2022-08-21T15:12:27;26.80;57.10
42135;DHT22;28312;43.460;11.810;2022-08-21T15:16:32;26.80;57.20
42135;DHT22;28312;43.460;11.810;2022-08-21T15:20:37;26.70;57.20
42135;DHT22;28312;43.460;11.810;2022-08-21T15:24:41;26.70;57.40
42135;DHT22;28312;43.460;11.810;2022-08-21T15:28:45;26.70;57.50
42135;DHT22;28312;43.460;11.810;2022-08-21T15:32:49;26.60;57.60
42135;DHT22;28312;43.460;11.810;2022-08-21T15:36:54;26.60;57.70
42135;DHT22;28312;43.460;11.810;2022-08-21T15:40:59;26.50;57.90
42135;DHT22;28312;43.460;11.810;2022-08-21T15:45:03;26.60;58.40
42135;DHT22;28312;43.460;11.810;2022-08-21T15:49:07;27.00;58.80
42135;DHT22;28312;43.460;11.810;2022-08-21T15:53:11;27.60;59.00
42135;DHT22;28312;43.460;11.810;2022-08-21T15:57:17;28.10;59.00
42135;DHT22;28312;43.460;11.810;2022-08-21T16:01:21;28.70;58.20
42135;DHT22;28312;43.460;11.810;2022-08-21T16:05:26;29.00;57.60
42135;DHT22;28312;43.460;11.810;2022-08-21T16:09:29;29.20;57.20
42135;DHT22;28312;43.460;11.810;2022-08-21T16:13:39;29.20;56.80
42135;DHT22;28312;43.460;11.810;2022-08-21T16:17:46;29.20;56.70
42135;DHT22;28312;43.460;11.810;2022-08-21T16:21:51;29.20;56.50
42135;DHT22;28312;43.460;11.810;2022-08-21T16:25:58;29.20;56.40
42135;DHT22;28312;43.460;11.810;2022-08-21T16:30:05;29.10;56.30
42135;DHT22;28312;43.460;11.810;2022-08-21T16:34:17;29.00;56.40
42135;DHT22;28312;43.460;11.810;2022-08-21T16:38:22;28.90;56.60
42135;DHT22;28312;43.460;11.810;2022-08-21T16:42:26;28.90;56.60
42135;DHT22;28312;43.460;11.810;2022-08-21T16:46:33;28.90;56.40
42135;DHT22;28312;43.460;11.810;2022-08-21T16:50:37;28.80;56.40
42135;DHT22;28312;43.460;11.810;2022-08-21T16:54:42;28.80;56.50
42135;DHT22;28312;43.460;11.810;2022-08-21T16:58:47;28.70;56.50
42135;DHT22;28312;43.460;11.810;2022-08-21T17:02:52;28.60;56.60
42135;DHT22;28312;43.460;11.810;2022-08-21T17:06:57;28.40;56.70
42135;DHT22;28312;43.460;11.810;2022-08-21T17:11:03;28.10;56.70
42135;DHT22;28312;43.460;11.810;2022-08-21T17:15:15;27.80;57.10
42135;DHT22;28312;43.460;11.810;2022-08-21T17:19:23;27.60;57.30
42135;DHT22;28312;43.460;11.810;2022-08-21T17:23:26;27.60;57.20
42135;DHT22;28312;43.460;11.810;2022-08-21T17:27:31;27.50;57.30
42135;DHT22;28312;43.460;11.810;2022-08-21T17:31:37;27.30;57.50
42135;DHT22;28312;43.460;11.810;2022-08-21T17:35:42;27.10;57.90
42135;DHT22;28312;43.460;11.810;2022-08-21T17:39:46;27.10;58.10
42135;DHT22;28312;43.460;11.810;2022-08-21T17:43:50;26.90;58.20
42135;DHT22;28312;43.460;11.810;2022-08-21T17:47:54;26.90;58.30
42135;DHT22;28312;43.460;11.810;2022-08-21T17:51:58;26.90;58.30
42135;DHT22;28312;43.460;11.810;2022-08-21T17:56:02;26.80;58.40
42135;DHT22;28312;43.460;11.810;2022-08-21T18:00:12;26.70;58.50
42135;DHT22;28312;43.460;11.810;2022-08-21T18:04:16;26.60;58.50
42135;DHT22;28312;43.460;11.810;2022-08-21T18:08:20;26.50;58.70
42135;DHT22;28312;43.460;11.810;2022-08-21T18:12:23;26.30;59.00
42135;DHT22;28312;43.460;11.810;2022-08-21T18:16:28;26.10;59.00
42135;DHT22;28312;43.460;11.810;2022-08-21T18:20:33;26.10;59.10
42135;DHT22;28312;43.460;11.810;2022-08-21T18:24:37;25.90;59.10
42135;DHT22;28312;43.460;11.810;2022-08-21T18:28:41;25.60;59.40
42135;DHT22;28312;43.460;11.810;2022-08-21T18:32:46;25.30;59.70
42135;DHT22;28312;43.460;11.810;2022-08-21T18:36:53;25.20;59.80
42135;DHT22;28312;43.460;11.810;2022-08-21T18:40:57;25.10;59.90
42135;DHT22;28312;43.460;11.810;2022-08-21T18:45:03;24.80;60.00
42135;DHT22;28312;43.460;11.810;2022-08-21T18:49:08;24.60;60.50
42135;DHT22;28312;43.460;11.810;2022-08-21T18:53:13;24.20;60.90
42135;DHT22;28312;43.460;11.810;2022-08-21T18:57:30;24.00;61.30
42135;DHT22;28312;43.460;11.810;2022-08-21T19:01:35;23.80;61.50
42135;DHT22;28312;43.460;11.810;2022-08-21T19:05:40;23.70;61.50
42135;DHT22;28312;43.460;11.810;2022-08-21T19:09:46;23.60;61.70
42135;DHT22;28312;43.460;11.810;2022-08-21T19:14:12;23.50;61.70
42135;DHT22;28312;43.460;11.810;2022-08-21T19:18:19;23.30;62.00
42135;DHT22;28312;43.460;11.810;2022-08-21T19:22:30;23.20;62.20
42135;DHT22;28312;43.460;11.810;2022-08-21T19:26:34;23.00;62.40
42135;DHT22;28312;43.460;11.810;2022-08-21T19:30:40;22.90;62.60
42135;DHT22;28312;43.460;11.810;2022-08-21T19:34:49;22.70;62.80
42135;DHT22;28312;43.460;11.810;2022-08-21T19:38:53;22.60;63.00
42135;DHT22;28312;43.460;11.810;2022-08-21T19:42:57;22.60;63.00
42135;DHT22;28312;43.460;11.810;2022-08-21T19:47:03;22.40;63.20
42135;DHT22;28312;43.460;11.810;2022-08-21T19:51:09;22.30;63.30
42135;DHT22;28312;43.460;11.810;2022-08-21T19:55:16;22.20;63.50
42135;DHT22;28312;43.460;11.810;2022-08-21T19:59:21;22.10;63.60
42135;DHT22;28312;43.460;11.810;2022-08-21T20:03:27;22.10;63.70
42135;DHT22;28312;43.460;11.810;2022-08-21T20:07:31;21.90;63.80
42135;DHT22;28312;43.460;11.810;2022-08-21T20:11:42;21.80;63.90
42135;DHT22;28312;43.460;11.810;2022-08-21T20:15:46;21.70;64.10
42135;DHT22;28312;43.460;11.810;2022-08-21T20:19:51;21.70;64.10
42135;DHT22;28312;43.460;11.810;2022-08-21T20:23:57;21.70;64.10
42135;DHT22;28312;43.460;11.810;2022-08-21T20:28:03;21.50;64.30
42135;DHT22;28312;43.460;11.810;2022-08-21T20:32:08;21.40;64.80
42135;DHT22;28312;43.460;11.810;2022-08-21T20:36:14;21.30;64.90
42135;DHT22;28312;43.460;11.810;2022-08-21T20:40:17;21.20;65.00
42135;DHT22;28312;43.460;11.810;2022-08-21T20:44:30;21.10;65.20
42135;DHT22;28312;43.460;11.810;2022-08-21T20:48:38;21.00;65.30
42135;DHT22;28312;43.460;11.810;2022-08-21T20:52:59;21.00;65.40
42135;DHT22;28312;43.460;11.810;2022-08-21T20:57:45;20.90;65.40
42135;DHT22;28312;43.460;11.810;2022-08-21T21:01:40;20.80;65.60
42135;DHT22;28312;43.460;11.810;2022-08-21T21:05:54;20.70;65.80
42135;DHT22;28312;43.460;11.810;2022-08-21T21:10:03;20.70;66.20
42135;DHT22;28312;43.460;11.810;2022-08-21T21:14:13;20.80;66.20
42135;DHT22;28312;43.460;11.810;2022-08-21T21:22:34;20.90;66.20
42135;DHT22;28312;43.460;11.810;2022-08-21T21:30:51;20.80;66.20
42135;DHT22;28312;43.460;11.810;2022-08-21T21:35:04;20.80;66.30
42135;DHT22;28312;43.460;11.810;2022-08-21T21:48:12;20.70;66.50
42135;DHT22;28312;43.460;11.810;2022-08-21T22:01:30;20.50;66.80
42135;DHT22;28312;43.460;11.810;2022-08-21T22:06:01;20.40;66.90
42135;DHT22;28312;43.460;11.810;2022-08-21T22:10:31;20.40;66.90
42135;DHT22;28312;43.460;11.810;2022-08-21T22:14:46;20.30;66.90
42135;DHT22;28312;43.460;11.810;2022-08-21T22:18:55;20.20;67.00
42135;DHT22;28312;43.460;11.810;2022-08-21T22:23:03;20.20;67.10
42135;DHT22;28312;43.460;11.810;2022-08-21T22:27:14;20.20;67.20
42135;DHT22;28312;43.460;11.810;2022-08-21T22:31:27;20.10;67.30
42135;DHT22;28312;43.460;11.810;2022-08-21T22:35:32;20.10;67.20
42135;DHT22;28312;43.460;11.810;2022-08-21T22:39:42;20.00;67.10
42135;DHT22;28312;43.460;11.810;2022-08-21T22:43:54;19.90;67.30
42135;DHT22;28312;43.460;11.810;2022-08-21T22:48:07;19.80;67.40
42135;DHT22;28312;43.460;11.810;2022-08-21T22:52:35;19.70;67.40
42135;DHT22;28312;43.460;11.810;2022-08-21T22:56:42;19.60;67.50
42135;DHT22;28312;43.460;11.810;2022-08-21T23:00:53;19.70;67.40
42135;DHT22;28312;43.460;11.810;2022-08-21T23:05:02;19.60;67.40
42135;DHT22;28312;43.460;11.810;2022-08-21T23:09:31;19.50;67.60
42135;DHT22;28312;43.460;11.810;2022-08-21T23:13:44;19.40;67.60
42135;DHT22;28312;43.460;11.810;2022-08-21T23:18:02;19.40;67.60
42135;DHT22;28312;43.460;11.810;2022-08-21T23:22:38;19.30;67.60
42135;DHT22;28312;43.460;11.810;2022-08-21T23:26:59;19.20;67.70
42135;DHT22;28312;43.460;11.810;2022-08-21T23:31:53;19.10;67.90
42135;DHT22;28312;43.460;11.810;2022-08-21T23:36:11;19.10;68.00
42135;DHT22;28312;43.460;11.810;2022-08-21T23:41:11;19.00;68.20
42135;DHT22;28312;43.460;11.810;2022-08-21T23:49:35;18.90;68.10
42135;DHT22;28312;43.460;11.810;2022-08-21T23:54:43;18.80;68.40
